Pagina principale
METAR-TAF:

METAR-TAF

Aeroporti :

Selebi-Phikwe, Botswana

latitudine: 22-03-19S, longitudine: 027-49-13E, altezza: 892 m

Osservazione

Il bollettino è stato emesso 1 ora e 33 minuti fa, alle 18:00 UTC
Vento 5 kt da est/sud-est
Temperature 28°C
Umidità 62%
Pressione 1016 hPa
Visibilità 10 km o più
nessuna nube inferiore a 1500 m e nessun cumulonembo

METAR: FBSP 161800Z 11005KT CAVOK 28/20 Q1016

Ora: 21:33 (19:33 UTC)

Previsione

Il bollettino è stato emesso 8 ore e 33 minuti fa, alle 11:00 UTC
Previsione valida dal 16 alle 12 UTC al 16 alle 21 UTC
Vento 10 kt da est
Visibilità 10 km o più
nessuna nube inferiore a 1500 m e nessun cumulonembo

TAF: FBSP 161100Z 1612/1621 10010KT CAVOK

Osservazioni e previsioni meteorologiche di più di 4000 aeroporti (messaggi METAR e TAF).

Le stazioni disponibili sono rappresentate dai dischi gialli e rossi sulla carta.

Puntare il mouse per vedere il nome della stazione.

Clicca sopra per visualizzare le osservazioni e previsioni meteorologiche.

Per cambiare la mappa : fare clic sui pulsanti verdi con una croce nera per ingrandire, il pulsante verde con un trattino per diminuire, o sulla freccia verde per le mappe adiacenti.


METAR-TAF: